createdAt,value
2022-08-22T00:00:13.440Z,22.78
2022-08-22T00:02:41.977Z,24.18
2022-08-22T00:02:42.775Z,23.93
2022-08-22T00:02:46.733Z,23.08
2022-08-22T00:02:56.462Z,23.36
2022-08-22T00:02:57.557Z,22.96
2022-08-22T00:03:03.717Z,23.69
2022-08-22T00:03:10.197Z,22.87
2022-08-22T00:03:22.580Z,22.78
2022-08-22T00:06:10.807Z,22.76
2022-08-22T00:08:54.532Z,22.72
2022-08-22T00:11:34.957Z,22.72
2022-08-22T00:14:12.194Z,22.69
2022-08-22T00:16:47.878Z,22.65
2022-08-22T00:19:26.887Z,22.65
2022-08-22T00:22:02.224Z,22.64
2022-08-22T00:24:40.362Z,22.66
2022-08-22T00:27:15.550Z,22.57
2022-08-22T00:29:48.630Z,22.56
2022-08-22T00:32:24.092Z,22.58
2022-08-22T00:34:58.583Z,22.55
2022-08-22T00:37:32.133Z,22.54
2022-08-22T00:40:10.615Z,22.53
2022-08-22T00:42:57.545Z,22.48
2022-08-22T00:45:43.770Z,22.42
2022-08-22T00:48:35.806Z,22.44
2022-08-22T00:51:41.788Z,22.44
2022-08-22T00:54:25.244Z,22.40
2022-08-22T00:57:14.282Z,22.38
2022-08-22T01:00:09.007Z,22.37
2022-08-22T01:02:52.872Z,22.34
2022-08-22T01:05:44.600Z,22.33
2022-08-22T01:08:31.358Z,22.27
2022-08-22T01:11:11.308Z,22.21
2022-08-22T01:13:57.160Z,22.17
2022-08-22T01:16:46.055Z,22.07
2022-08-22T01:19:46.931Z,22.12
2022-08-22T01:23:00.874Z,22.06
2022-08-22T01:26:02.037Z,22.04
2022-08-22T01:29:10.442Z,21.96
2022-08-22T01:32:20.732Z,21.93
2022-08-22T01:35:11.944Z,21.86
2022-08-22T01:38:05.400Z,21.78
2022-08-22T01:41:18.261Z,21.84
2022-08-22T01:44:04.101Z,21.94
2022-08-22T01:46:43.628Z,21.94
2022-08-22T01:49:20.605Z,21.93
2022-08-22T01:51:56.965Z,21.99
2022-08-22T01:54:36.042Z,22.02
2022-08-22T01:57:07.924Z,21.95
2022-08-22T01:59:42.349Z,21.95
2022-08-22T02:02:41.960Z,21.98
2022-08-22T02:05:20.701Z,21.97
2022-08-22T02:07:59.906Z,21.97
2022-08-22T02:10:44.612Z,21.94
2022-08-22T02:13:30.501Z,21.90
2022-08-22T02:16:27.043Z,21.88
2022-08-22T02:19:13.709Z,21.86
2022-08-22T02:21:47.560Z,21.84
2022-08-22T02:24:23.523Z,21.88
2022-08-22T02:27:04.758Z,21.89
2022-08-22T02:29:40.244Z,21.92
2022-08-22T02:32:20.463Z,21.89
2022-08-22T02:34:58.953Z,21.87
2022-08-22T02:37:36.990Z,21.89
2022-08-22T02:40:14.098Z,21.88
2022-08-22T02:42:49.866Z,21.90
2022-08-22T02:45:26.228Z,21.93
2022-08-22T02:48:02.148Z,21.95
2022-08-22T02:50:39.558Z,21.96
2022-08-22T02:53:16.024Z,21.99
2022-08-22T02:55:53.928Z,21.97
2022-08-22T02:58:36.586Z,22.00
2022-08-22T03:01:24.262Z,22.02
2022-08-22T03:04:14.930Z,22.00
2022-08-22T03:06:46.496Z,21.98
2022-08-22T03:09:31.082Z,21.96
2022-08-22T03:12:09.451Z,21.93
2022-08-22T03:14:44.644Z,21.95
2022-08-22T03:17:19.123Z,21.98
2022-08-22T03:19:56.900Z,22.00
2022-08-22T03:22:34.828Z,22.02
2022-08-22T03:25:11.281Z,22.01
2022-08-22T03:27:49.485Z,21.98
2022-08-22T03:30:22.072Z,21.96
2022-08-22T03:32:57.101Z,21.99
2022-08-22T03:35:36.138Z,21.99
2022-08-22T03:38:18.427Z,22.02
2022-08-22T03:41:15.254Z,22.05
2022-08-22T03:44:06.658Z,22.06
2022-08-22T03:46:50.276Z,22.07
2022-08-22T03:49:59.679Z,22.09
2022-08-22T03:53:19.175Z,22.10
2022-08-22T03:56:32.403Z,22.09
2022-08-22T03:59:48.496Z,22.09
2022-08-22T04:02:43.007Z,22.11
2022-08-22T04:05:46.089Z,22.14
2022-08-22T04:08:53.326Z,22.11
2022-08-22T04:11:46.797Z,22.14
2022-08-22T04:14:39.826Z,22.16
2022-08-22T04:17:32.284Z,22.18
2022-08-22T04:20:21.041Z,22.16
2022-08-22T04:23:28.141Z,22.14
2022-08-22T04:26:10.782Z,22.14
2022-08-22T04:28:46.672Z,22.19
2022-08-22T04:31:19.883Z,22.21
2022-08-22T04:33:55.708Z,22.21
2022-08-22T04:36:27.645Z,22.21
2022-08-22T04:39:03.528Z,22.24
2022-08-22T04:41:39.106Z,22.22
2022-08-22T04:44:15.511Z,22.28
2022-08-22T04:46:49.845Z,22.28
2022-08-22T04:49:26.217Z,22.29
2022-08-22T04:52:06.340Z,22.31
2022-08-22T04:54:45.193Z,22.34
2022-08-22T04:57:22.643Z,22.38
2022-08-22T04:59:51.983Z,22.37
2022-08-22T05:02:27.724Z,22.41
2022-08-22T05:05:04.943Z,22.39
2022-08-22T05:07:46.160Z,22.35
2022-08-22T05:10:21.591Z,22.29
2022-08-22T05:12:56.704Z,22.31
2022-08-22T05:15:29.022Z,22.32
2022-08-22T05:18:01.674Z,22.35
2022-08-22T05:20:32.904Z,22.37
2022-08-22T05:23:08.098Z,22.39
2022-08-22T05:25:50.468Z,22.42
2022-08-22T05:28:33.889Z,22.52
2022-08-22T05:31:06.044Z,22.54
2022-08-22T05:33:40.586Z,22.58
2022-08-22T05:36:14.742Z,22.59
2022-08-22T05:38:48.552Z,22.58
2022-08-22T05:41:23.868Z,22.59
2022-08-22T05:43:53.773Z,22.62
2022-08-22T05:46:26.951Z,22.62
2022-08-22T05:49:00.031Z,22.61
2022-08-22T05:51:43.893Z,22.68
2022-08-22T05:54:17.084Z,22.63
2022-08-22T05:56:48.796Z,22.65
2022-08-22T05:59:25.661Z,22.62
2022-08-22T06:02:03.344Z,22.68
2022-08-22T06:04:37.444Z,22.75
2022-08-22T06:07:13.207Z,22.76
2022-08-22T06:10:21.014Z,22.78
2022-08-22T06:12:57.548Z,22.81
2022-08-22T06:15:36.165Z,22.85
2022-08-22T06:18:13.680Z,22.82
2022-08-22T06:20:47.292Z,22.87
2022-08-22T06:23:22.533Z,22.92
2022-08-22T06:25:52.909Z,22.90
2022-08-22T06:28:25.878Z,22.96
2022-08-22T06:30:57.509Z,22.97
2022-08-22T06:33:29.359Z,23.02
2022-08-22T06:36:20.517Z,23.02
2022-08-22T06:39:02.533Z,23.07
2022-08-22T06:41:34.625Z,23.18
2022-08-22T06:44:05.289Z,23.27
2022-08-22T06:46:37.289Z,23.32
2022-08-22T06:49:08.656Z,23.43
2022-08-22T06:51:39.366Z,23.48
2022-08-22T06:54:15.385Z,23.56
2022-08-22T06:56:47.603Z,23.63
2022-08-22T06:59:19.784Z,23.75
2022-08-22T07:01:53.727Z,23.81
2022-08-22T07:04:26.716Z,23.88
2022-08-22T07:06:57.713Z,23.90
2022-08-22T07:09:30.703Z,23.93
2022-08-22T07:12:03.112Z,24.05
2022-08-22T07:14:40.416Z,24.07
2022-08-22T07:17:16.867Z,24.05
2022-08-22T07:19:50.680Z,24.07
2022-08-22T07:22:25.652Z,24.11
2022-08-22T07:25:01.070Z,24.23
2022-08-22T07:27:48.276Z,24.30
2022-08-22T07:30:28.053Z,24.36
2022-08-22T07:33:26.487Z,24.49
2022-08-22T07:35:57.122Z,24.57
2022-08-22T07:38:35.000Z,24.65
2022-08-22T07:41:14.213Z,24.74
2022-08-22T07:43:47.835Z,24.82
2022-08-22T07:46:27.564Z,24.91
2022-08-22T07:49:09.237Z,24.98
2022-08-22T07:51:44.208Z,24.94
2022-08-22T07:54:15.830Z,25.04
2022-08-22T07:56:53.473Z,25.11
2022-08-22T07:59:23.242Z,25.16
2022-08-22T08:01:55.064Z,25.21
2022-08-22T08:04:30.518Z,25.24
2022-08-22T08:07:03.327Z,25.32
2022-08-22T08:09:34.775Z,25.38
2022-08-22T08:12:07.096Z,25.44
2022-08-22T08:14:39.056Z,25.55
2022-08-22T08:17:11.277Z,25.65
2022-08-22T08:19:42.658Z,25.73
2022-08-22T08:22:17.063Z,25.84
2022-08-22T08:24:47.686Z,25.91
2022-08-22T08:27:37.455Z,25.99
2022-08-22T08:30:15.446Z,26.07
2022-08-22T08:32:57.603Z,26.16
2022-08-22T08:36:02.265Z,26.26
2022-08-22T08:38:37.703Z,26.36
2022-08-22T08:41:44.723Z,26.50
2022-08-22T08:44:25.171Z,26.56
2022-08-22T08:47:33.360Z,26.66
2022-08-22T08:50:19.615Z,26.91
2022-08-22T08:53:18.478Z,27.18
2022-08-22T08:55:58.925Z,27.41
2022-08-22T08:58:35.842Z,27.51
2022-08-22T09:01:35.802Z,27.62
2022-08-22T09:04:34.656Z,27.81
2022-08-22T09:07:25.498Z,28.19
2022-08-22T09:10:14.556Z,28.58
2022-08-22T09:13:19.047Z,28.88
2022-08-22T09:16:04.479Z,29.09
2022-08-22T09:19:12.837Z,29.29
2022-08-22T09:22:14.437Z,29.33
2022-08-22T09:25:17.373Z,29.36
2022-08-22T09:27:55.197Z,29.45
2022-08-22T09:30:28.555Z,29.35
2022-08-22T09:33:02.145Z,29.31
2022-08-22T09:35:46.929Z,29.29
2022-08-22T09:38:32.897Z,29.41
2022-08-22T09:41:16.198Z,29.54
2022-08-22T09:43:49.573Z,29.48
2022-08-22T09:46:29.501Z,29.54
2022-08-22T09:49:09.660Z,29.56
2022-08-22T09:51:42.963Z,29.61
2022-08-22T09:54:31.523Z,29.51
2022-08-22T09:57:13.999Z,29.51
2022-08-22T09:59:58.166Z,29.38
2022-08-22T10:02:36.426Z,29.37
2022-08-22T10:05:40.807Z,29.22
2022-08-22T10:08:20.261Z,29.22
2022-08-22T10:11:11.492Z,29.24
2022-08-22T10:14:00.806Z,29.41
2022-08-22T10:16:49.954Z,29.53
2022-08-22T10:19:32.074Z,29.57
2022-08-22T10:22:36.986Z,29.66
2022-08-22T10:25:29.157Z,29.80
2022-08-22T10:28:10.513Z,29.94
2022-08-22T10:30:50.010Z,30.14
2022-08-22T10:33:29.227Z,30.36
2022-08-22T10:36:04.714Z,30.86
2022-08-22T10:38:46.119Z,31.34
2022-08-22T10:41:28.416Z,31.46
2022-08-22T10:44:04.497Z,31.87
2022-08-22T10:46:42.145Z,32.39
2022-08-22T10:49:20.025Z,32.83
2022-08-22T10:51:54.716Z,32.83
2022-08-22T10:54:38.497Z,33.05
2022-08-22T10:57:23.523Z,33.18
2022-08-22T10:59:59.104Z,33.25
2022-08-22T11:02:42.305Z,33.58
2022-08-22T11:05:27.673Z,33.68
2022-08-22T11:08:06.482Z,33.90
2022-08-22T11:10:53.188Z,33.87
2022-08-22T11:13:31.076Z,33.60
2022-08-22T11:16:06.408Z,33.49
2022-08-22T11:18:57.768Z,33.49
2022-08-22T11:21:43.881Z,33.14
2022-08-22T11:24:36.259Z,32.95
2022-08-22T11:27:37.703Z,32.61
2022-08-22T11:30:18.350Z,32.39
2022-08-22T11:33:20.161Z,32.23
2022-08-22T11:35:56.406Z,32.03
2022-08-22T11:38:32.402Z,31.90
2022-08-22T11:41:10.776Z,31.68
2022-08-22T11:43:50.980Z,31.53
2022-08-22T11:46:26.360Z,31.57
2022-08-22T11:49:15.810Z,31.54
2022-08-22T11:52:14.338Z,31.25
2022-08-22T11:55:09.525Z,31.14
2022-08-22T11:57:44.326Z,31.18
2022-08-22T12:00:24.809Z,31.22
2022-08-22T12:03:27.900Z,31.22
2022-08-22T12:06:02.730Z,31.27
2022-08-22T12:09:14.123Z,31.22
2022-08-22T12:11:58.895Z,31.10
2022-08-22T12:14:35.408Z,30.98
2022-08-22T12:17:56.053Z,30.89
2022-08-22T12:20:59.269Z,30.78
2022-08-22T12:23:49.348Z,30.57
2022-08-22T12:26:29.180Z,30.41
2022-08-22T12:29:16.786Z,30.37
2022-08-22T12:32:27.698Z,30.39
2022-08-22T12:35:19.440Z,30.15
2022-08-22T12:38:26.688Z,30.11
2022-08-22T12:41:27.654Z,30.05
2022-08-22T12:44:17.026Z,30.00
2022-08-22T12:47:00.644Z,29.94
2022-08-22T12:49:49.945Z,29.95
2022-08-22T12:52:37.383Z,29.92
2022-08-22T12:55:25.313Z,29.97
2022-08-22T12:58:07.102Z,29.94
2022-08-22T13:00:40.365Z,29.78
2022-08-22T13:03:14.659Z,29.72
2022-08-22T13:05:57.004Z,29.66
2022-08-22T13:08:34.008Z,29.74
2022-08-22T13:11:08.397Z,29.71
2022-08-22T13:13:44.803Z,29.70
2022-08-22T13:16:26.856Z,29.76
2022-08-22T13:18:58.333Z,29.83
2022-08-22T13:21:34.965Z,29.78
2022-08-22T13:24:11.811Z,29.74
2022-08-22T13:26:55.003Z,29.69
2022-08-22T13:29:39.073Z,29.70
2022-08-22T13:32:23.497Z,29.66
2022-08-22T13:34:57.397Z,29.66
2022-08-22T13:37:32.752Z,29.59
2022-08-22T13:40:06.109Z,29.65
2022-08-22T13:42:45.639Z,29.69
2022-08-22T13:45:23.432Z,29.58
2022-08-22T13:47:58.592Z,29.52
2022-08-22T13:50:35.828Z,29.50
2022-08-22T13:53:28.235Z,29.55
2022-08-22T13:56:05.514Z,29.57
2022-08-22T13:58:41.168Z,29.54
2022-08-22T14:01:43.309Z,29.53
2022-08-22T14:04:32.175Z,29.49
2022-08-22T14:07:34.083Z,29.52
2022-08-22T14:10:14.797Z,29.52
2022-08-22T14:13:08.385Z,29.55
2022-08-22T14:15:45.452Z,29.57
2022-08-22T14:18:18.469Z,29.52
2022-08-22T14:20:49.740Z,29.53
2022-08-22T14:23:27.225Z,29.55
2022-08-22T14:25:57.291Z,29.52
2022-08-22T14:28:29.744Z,29.57
2022-08-22T14:31:03.675Z,29.58
2022-08-22T14:33:36.656Z,29.55
2022-08-22T14:36:14.341Z,29.52
2022-08-22T14:38:49.179Z,29.52
2022-08-22T14:41:28.722Z,29.55
2022-08-22T14:44:23.560Z,29.58
2022-08-22T14:46:58.786Z,29.50
2022-08-22T14:49:50.738Z,29.51
2022-08-22T14:52:37.504Z,29.49
2022-08-22T14:55:20.120Z,29.43
2022-08-22T14:57:54.539Z,29.42
2022-08-22T15:00:32.825Z,29.38
2022-08-22T15:03:22.142Z,29.35
2022-08-22T15:05:54.041Z,29.30
2022-08-22T15:08:35.406Z,29.35
2022-08-22T15:11:15.640Z,29.31
2022-08-22T15:13:52.750Z,29.29
2022-08-22T15:16:24.645Z,29.28
2022-08-22T15:18:54.511Z,29.26
2022-08-22T15:21:25.644Z,29.21
2022-08-22T15:23:56.825Z,29.20
2022-08-22T15:26:30.698Z,29.18
2022-08-22T15:29:07.171Z,29.19
2022-08-22T15:31:39.686Z,29.15
2022-08-22T15:34:14.396Z,29.17
2022-08-22T15:37:11.943Z,29.13
2022-08-22T15:40:12.121Z,29.09
2022-08-22T15:42:44.291Z,29.04
2022-08-22T15:45:33.885Z,29.08
2022-08-22T15:48:06.087Z,29.04
2022-08-22T15:50:41.962Z,29.00
2022-08-22T15:53:16.191Z,29.03
2022-08-22T15:56:20.255Z,29.00
2022-08-22T15:58:52.886Z,28.96
2022-08-22T16:01:24.121Z,28.96
2022-08-22T16:03:57.350Z,28.91
2022-08-22T16:06:45.569Z,28.89
2022-08-22T16:09:36.299Z,28.80
2022-08-22T16:12:09.605Z,28.76
2022-08-22T16:14:51.129Z,28.71
2022-08-22T16:17:43.861Z,28.70
2022-08-22T16:20:46.947Z,28.69
2022-08-22T16:23:16.825Z,28.66
2022-08-22T16:26:08.051Z,28.63
2022-08-22T16:29:04.088Z,28.57
2022-08-22T16:31:35.873Z,28.54
2022-08-22T16:34:24.616Z,28.47
2022-08-22T16:37:33.577Z,28.44
2022-08-22T16:40:15.218Z,28.43
2022-08-22T16:42:46.626Z,28.38
2022-08-22T16:45:22.439Z,28.37
2022-08-22T16:47:58.391Z,28.35
2022-08-22T16:50:41.090Z,28.34
2022-08-22T16:53:13.925Z,28.32
2022-08-22T16:56:17.652Z,28.28
2022-08-22T16:59:19.750Z,28.23
2022-08-22T17:02:12.347Z,28.22
2022-08-22T17:04:55.556Z,28.17
2022-08-22T17:07:40.307Z,28.12
2022-08-22T17:10:36.531Z,28.07
2022-08-22T17:13:18.443Z,28.02
2022-08-22T17:16:02.099Z,28.02
2022-08-22T17:18:46.247Z,27.96
2022-08-22T17:21:25.882Z,27.92
2022-08-22T17:24:06.673Z,27.96
2022-08-22T17:26:49.964Z,27.96
2022-08-22T17:29:32.146Z,27.93
2022-08-22T17:32:16.807Z,27.95
2022-08-22T17:34:56.931Z,27.89
2022-08-22T17:37:39.449Z,27.85
2022-08-22T17:40:37.071Z,27.84
2022-08-22T17:43:23.116Z,27.83
2022-08-22T17:46:13.374Z,27.76
2022-08-22T17:48:48.334Z,27.70
2022-08-22T17:51:28.514Z,27.69
2022-08-22T17:54:02.554Z,27.64
2022-08-22T17:56:40.548Z,27.64
2022-08-22T17:59:20.835Z,27.63
2022-08-22T18:01:55.103Z,27.59
2022-08-22T18:04:33.798Z,27.57
2022-08-22T18:07:23.106Z,27.53
2022-08-22T18:09:56.181Z,27.51
2022-08-22T18:12:34.466Z,27.48
2022-08-22T18:15:10.683Z,27.49
2022-08-22T18:17:42.985Z,27.45
2022-08-22T18:20:18.198Z,27.43
2022-08-22T18:22:52.578Z,27.45
2022-08-22T18:25:35.743Z,27.49
2022-08-22T18:28:11.089Z,27.47
2022-08-22T18:30:53.271Z,27.41
2022-08-22T18:33:31.642Z,27.38
2022-08-22T18:36:10.991Z,27.36
2022-08-22T18:38:50.727Z,27.38
2022-08-22T18:41:28.689Z,27.37
2022-08-22T18:44:01.184Z,27.33
2022-08-22T18:46:34.416Z,27.33
2022-08-22T18:49:15.558Z,27.30
2022-08-22T18:51:46.047Z,27.28
2022-08-22T18:54:38.572Z,27.28
2022-08-22T18:57:26.631Z,27.21
2022-08-22T19:00:09.107Z,27.13
2022-08-22T19:03:25.359Z,27.07
2022-08-22T19:06:24.607Z,27.00
2022-08-22T19:09:34.313Z,26.97
2022-08-22T19:12:12.844Z,26.89
2022-08-22T19:15:17.085Z,26.87
2022-08-22T19:18:05.484Z,26.85
2022-08-22T19:21:07.244Z,26.75
2022-08-22T19:23:45.580Z,26.68
2022-08-22T19:26:28.978Z,26.65
2022-08-22T19:29:00.167Z,26.60
2022-08-22T19:31:48.969Z,26.60
2022-08-22T19:34:40.262Z,26.55
2022-08-22T19:37:32.101Z,26.49
2022-08-22T19:40:05.288Z,26.40
2022-08-22T19:42:40.212Z,26.32
2022-08-22T19:45:20.480Z,26.34
2022-08-22T19:48:02.231Z,26.28
2022-08-22T19:50:36.142Z,26.24
2022-08-22T19:53:26.418Z,26.19
2022-08-22T19:56:04.849Z,26.13
2022-08-22T19:58:57.088Z,26.07
2022-08-22T20:01:38.035Z,26.05
2022-08-22T20:04:13.014Z,26.02
2022-08-22T20:06:52.957Z,25.92
2022-08-22T20:09:33.395Z,25.94
2022-08-22T20:12:15.531Z,25.93
2022-08-22T20:14:48.241Z,25.90
2022-08-22T20:17:39.681Z,25.84
2022-08-22T20:20:18.398Z,25.88
2022-08-22T20:22:55.222Z,25.79
2022-08-22T20:25:42.357Z,25.79
2022-08-22T20:28:39.937Z,25.76
2022-08-22T20:31:20.421Z,25.76
2022-08-22T20:33:53.860Z,25.74
2022-08-22T20:36:28.819Z,25.77
2022-08-22T20:39:02.890Z,25.74
2022-08-22T20:41:35.774Z,25.71
2022-08-22T20:44:12.732Z,25.73
2022-08-22T20:46:53.354Z,25.75
2022-08-22T20:49:26.175Z,25.73
2022-08-22T20:51:58.061Z,25.73
2022-08-22T20:54:29.874Z,25.77
2022-08-22T20:57:01.563Z,25.74
2022-08-22T20:59:37.117Z,25.74
2022-08-22T21:02:14.767Z,25.71
2022-08-22T21:04:53.596Z,25.72
2022-08-22T21:07:28.128Z,25.73
2022-08-22T21:10:22.078Z,25.73
2022-08-22T21:13:07.500Z,25.67
2022-08-22T21:15:38.757Z,25.64
2022-08-22T21:18:09.214Z,25.67
2022-08-22T21:20:39.191Z,25.66
2022-08-22T21:23:11.514Z,25.63
2022-08-22T21:25:53.313Z,25.63
2022-08-22T21:28:29.818Z,25.60
2022-08-22T21:30:58.560Z,25.55
2022-08-22T21:33:28.914Z,25.54
2022-08-22T21:36:00.519Z,25.52
2022-08-22T21:38:29.467Z,25.51
2022-08-22T21:41:05.440Z,25.48
2022-08-22T21:43:36.979Z,25.42
2022-08-22T21:46:06.116Z,25.39
2022-08-22T21:48:40.072Z,25.36
2022-08-22T21:51:28.403Z,25.30
2022-08-22T21:54:39.903Z,25.28
2022-08-22T21:57:21.523Z,25.25
2022-08-22T21:59:59.958Z,25.23
2022-08-22T22:02:36.575Z,25.25
2022-08-22T22:05:11.369Z,25.21
2022-08-22T22:07:41.580Z,25.20
2022-08-22T22:10:13.784Z,25.17
2022-08-22T22:12:43.334Z,25.11
2022-08-22T22:15:16.249Z,25.15
2022-08-22T22:17:44.707Z,25.09
2022-08-22T22:20:16.306Z,25.06
2022-08-22T22:22:46.486Z,25.08
2022-08-22T22:25:39.953Z,25.05
2022-08-22T22:28:08.374Z,24.98
2022-08-22T22:30:37.087Z,24.99
2022-08-22T22:33:06.482Z,24.97
2022-08-22T22:35:39.166Z,24.99
2022-08-22T22:38:08.162Z,24.96
2022-08-22T22:40:36.980Z,24.94
2022-08-22T22:43:05.673Z,24.91
2022-08-22T22:45:34.140Z,24.93
2022-08-22T22:48:02.591Z,24.94
2022-08-22T22:50:31.274Z,24.93
2022-08-22T22:53:01.136Z,24.92
2022-08-22T22:55:29.595Z,24.91
2022-08-22T22:57:59.896Z,24.93
2022-08-22T23:00:30.881Z,24.94
2022-08-22T23:03:01.529Z,24.95
2022-08-22T23:05:30.776Z,24.93
2022-08-22T23:08:01.148Z,24.90
2022-08-22T23:10:31.553Z,24.92
2022-08-22T23:13:00.603Z,24.85
2022-08-22T23:15:29.343Z,24.82
2022-08-22T23:17:58.137Z,24.77
2022-08-22T23:20:26.625Z,24.77
2022-08-22T23:22:55.121Z,24.74
2022-08-22T23:25:24.903Z,24.70
2022-08-22T23:27:53.621Z,24.68
2022-08-22T23:30:22.679Z,24.62
2022-08-22T23:32:51.114Z,24.53
2022-08-22T23:35:19.697Z,24.57
2022-08-22T23:37:48.134Z,24.54
2022-08-22T23:40:16.854Z,24.56
2022-08-22T23:42:46.715Z,24.59
2022-08-22T23:45:15.190Z,24.62
2022-08-22T23:47:43.581Z,24.67
2022-08-22T23:50:12.012Z,24.69
2022-08-22T23:52:40.498Z,24.65
2022-08-22T23:55:09.574Z,24.62
2022-08-22T23:57:38.477Z,24.61
